Time;durP1;ratioP1;P1;durP2;ratioP2;P2;SDS_P1;SDS_P2;PMS_P1;PMS_P2;Temp;Humidity;BMP_temperature;BMP_pressure;BME280_temperature;BME280_humidity;BME280_pressure;Samples;Min_cycle;Max_cycle;Signal;HPM_P1;HPM_P2
2022/08/02 00:00:59;;;;;;;2.13;1.33;;;;;;;20.88;100.00;96542.41;5051656;27;103227;-63
2022/08/02 00:03:29;;;;;;;2.97;1.73;;;;;;;20.97;100.00;96538.66;5051389;27;102015;-63
2022/08/02 00:05:56;;;;;;;1.83;1.70;;;;;;;21.07;100.00;96535.69;5055626;27;102539;-63
2022/08/02 00:08:23;;;;;;;1.90;1.80;;;;;;;21.06;100.00;96530.56;5051146;27;101885;-63
2022/08/02 00:10:51;;;;;;;2.50;1.60;;;;;;;21.17;100.00;96537.28;5051155;27;102670;-63
2022/08/02 00:13:18;;;;;;;1.73;1.63;;;;;;;20.96;100.00;96534.34;5050396;27;103853;-63
2022/08/02 00:15:45;;;;;;;1.90;1.70;;;;;;;21.01;100.00;96533.41;5051585;27;101966;-63
2022/08/02 00:18:13;;;;;;;1.60;1.50;;;;;;;20.94;100.00;96525.78;5051210;27;105380;-63
2022/08/02 00:20:42;;;;;;;2.37;1.67;;;;;;;20.91;100.00;96531.78;5050593;27;105371;-63
2022/08/02 00:23:09;;;;;;;2.30;1.80;;;;;;;20.94;100.00;96530.38;5050972;27;102118;-63
2022/08/02 00:25:37;;;;;;;1.70;1.60;;;;;;;20.76;100.00;96528.69;5052671;27;102993;-63
2022/08/02 00:28:04;;;;;;;1.90;1.80;;;;;;;20.55;100.00;96533.03;5053703;27;104553;-63
2022/08/02 00:30:32;;;;;;;1.80;1.70;;;;;;;20.56;100.00;96521.91;5052352;27;102614;-63
2022/08/02 00:33:01;;;;;;;1.90;1.80;;;;;;;20.59;100.00;96528.59;5050036;27;105528;-63
2022/08/02 00:35:28;;;;;;;2.27;1.53;;;;;;;20.50;100.00;96527.75;5051196;27;102061;-63
2022/08/02 00:37:57;;;;;;;1.60;1.50;;;;;;;20.45;100.00;96519.75;5050965;27;104911;-63
2022/08/02 00:40:24;;;;;;;1.53;1.43;;;;;;;20.46;100.00;96521.34;5049304;27;105361;-63
2022/08/02 00:43:03;;;;;;;1.80;1.70;;;;;;;20.51;100.00;96521.22;5051993;27;101834;-63
2022/08/02 00:45:30;;;;;;;2.07;1.57;;;;;;;20.43;100.00;96528.16;5050815;27;105455;-63
2022/08/02 00:47:57;;;;;;;1.93;1.83;;;;;;;20.54;100.00;96521.41;5050223;27;105977;-63
2022/08/02 00:50:25;;;;;;;2.23;1.70;;;;;;;20.46;100.00;96513.25;5054217;27;101802;-63
2022/08/02 00:52:52;;;;;;;2.00;1.80;;;;;;;20.32;100.00;96512.56;5051106;27;103196;-63
2022/08/02 00:55:22;;;;;;;2.13;1.67;;;;;;;20.51;100.00;96522.03;5051997;27;101695;-63
2022/08/02 00:57:49;;;;;;;2.10;1.90;;;;;;;20.55;100.00;96511.41;5051796;27;102783;-63
2022/08/02 01:00:18;;;;;;;2.10;1.90;;;;;;;20.33;100.00;96514.13;5049521;27;105693;-63
2022/08/02 01:02:44;;;;;;;3.93;1.87;;;;;;;20.48;100.00;96519.16;5050577;27;102026;-63
2022/08/02 01:05:12;;;;;;;2.67;2.07;;;;;;;20.37;100.00;96518.59;5050223;27;105930;-63
2022/08/02 01:07:40;;;;;;;2.47;2.00;;;;;;;20.27;100.00;96524.25;5051248;27;103065;-64
2022/08/02 01:10:08;;;;;;;2.37;2.07;;;;;;;20.45;100.00;96517.06;5050085;27;101931;-63
2022/08/02 01:12:38;;;;;;;2.17;1.80;;;;;;;20.48;100.00;96511.84;5053387;27;102814;-63
2022/08/02 01:15:08;;;;;;;1.73;1.60;;;;;;;20.69;100.00;96522.91;5051469;27;101843;-63
2022/08/02 01:17:46;;;;;;;2.17;1.83;;;;;;;20.68;100.00;96514.00;5051825;27;102348;-64
2022/08/02 01:20:30;;;;;;;2.03;1.90;;;;;;;20.55;100.00;96511.41;5051106;27;102652;-63
2022/08/02 01:23:15;;;;;;;2.33;2.10;;;;;;;20.50;100.00;96509.59;5050254;27;101919;-63
2022/08/02 01:26:08;;;;;;;2.87;1.90;;;;;;;20.40;100.00;96509.91;5051361;27;103177;-63
2022/08/02 01:28:40;;;;;;;2.00;1.87;;;;;;;20.18;100.00;96520.72;5049683;27;104371;-63
2022/08/02 01:31:26;;;;;;;2.00;1.80;;;;;;;20.24;100.00;96515.97;5051613;27;102065;-63
2022/08/02 01:33:59;;;;;;;1.90;1.43;;;;;;;20.25;100.00;96517.56;5052694;27;105163;-63
2022/08/02 01:36:30;;;;;;;1.83;1.67;;;;;;;20.30;100.00;96509.34;5049898;27;101979;-63
2022/08/02 01:38:58;;;;;;;2.20;2.00;;;;;;;20.19;100.00;96521.50;5050107;27;103611;-63
2022/08/02 01:41:28;;;;;;;2.50;1.80;;;;;;;20.11;100.00;96514.94;5050128;27;103113;-63
2022/08/02 01:44:00;;;;;;;2.60;1.60;;;;;;;19.97;100.00;96508.78;5051165;27;101761;-63
2022/08/02 01:46:29;;;;;;;1.90;1.80;;;;;;;19.90;100.00;96511.09;5049832;27;105284;-64
2022/08/02 01:48:58;;;;;;;1.93;1.80;;;;;;;20.06;100.00;96508.84;5048990;27;105582;-63
2022/08/02 01:54:11;;;;;;;2.93;2.07;;;;;;;19.81;100.00;96504.84;5048610;27;105583;-63
2022/08/02 01:56:41;;;;;;;2.87;2.00;;;;;;;19.77;100.00;96508.44;5052231;27;105853;-63
2022/08/02 01:59:13;;;;;;;3.37;2.00;;;;;;;19.81;100.00;96504.03;5050963;27;102321;-64
2022/08/02 02:01:42;;;;;;;1.83;1.73;;;;;;;19.78;100.00;96508.13;5050455;27;103124;-64
2022/08/02 02:04:10;;;;;;;2.57;2.30;;;;;;;19.85;100.00;96507.72;5050280;27;101848;-63
2022/08/02 02:06:38;;;;;;;2.80;1.97;;;;;;;19.72;100.00;96516.69;5049338;27;105589;-64
2022/08/02 02:09:06;;;;;;;2.60;2.20;;;;;;;19.78;100.00;96507.34;5050425;27;101870;-63
2022/08/02 02:11:34;;;;;;;2.33;2.13;;;;;;;19.65;100.00;96505.47;5050840;27;102078;-63
2022/08/02 02:14:03;;;;;;;3.07;2.23;;;;;;;19.56;100.00;96516.19;5049462;27;105333;-64
2022/08/02 02:16:33;;;;;;;3.83;2.20;;;;;;;19.51;100.00;96523.63;5050444;27;103207;-64
2022/08/02 02:19:03;;;;;;;2.57;2.37;;;;;;;19.58;100.00;96524.00;5054429;27;101770;-64
2022/08/02 02:21:30;;;;;;;2.30;1.70;;;;;;;19.77;100.00;96520.03;5049938;27;102715;-63
2022/08/02 02:23:57;;;;;;;2.33;2.07;;;;;;;19.65;100.00;96525.19;5048902;27;101915;-64
2022/08/02 02:26:24;;;;;;;2.23;2.03;;;;;;;19.57;100.00;96517.78;5050832;27;102988;-63
2022/08/02 02:28:54;;;;;;;2.00;1.77;;;;;;;19.65;100.00;96525.19;5050185;27;102607;-63
2022/08/02 02:31:21;;;;;;;3.63;1.93;;;;;;;19.65;100.00;96524.38;5050503;27;101842;-63
2022/08/02 02:33:56;;;;;;;2.57;1.77;;;;;;;19.69;100.00;96528.88;5049091;27;105506;-64
2022/08/02 02:36:23;;;;;;;3.30;2.17;;;;;;;19.52;100.00;96530.59;5049476;27;104223;-63
2022/08/02 02:38:53;;;;;;;2.63;1.97;;;;;;;19.57;100.00;96533.19;5049159;27;102003;-63
2022/08/02 02:41:23;;;;;;;3.37;2.13;;;;;;;19.74;100.00;96533.34;5051350;27;105063;-63
2022/08/02 02:43:53;;;;;;;3.63;2.17;;;;;;;19.69;100.00;96530.75;5049044;27;101803;-63
2022/08/02 02:46:21;;;;;;;3.60;1.90;;;;;;;19.74;100.00;96522.56;5050380;27;102327;-63
2022/08/02 02:48:49;;;;;;;2.50;2.30;;;;;;;19.71;100.00;96531.25;5048385;27;105366;-63
2022/08/02 02:51:21;;;;;;;3.40;2.00;;;;;;;19.94;100.00;96530.19;5048802;27;101875;-63
2022/08/02 02:53:49;;;;;;;2.27;1.93;;;;;;;19.98;100.00;96529.28;5050420;27;102368;-63
2022/08/02 02:56:17;;;;;;;1.87;1.77;;;;;;;19.90;100.00;96523.81;5048323;27;105539;-63
2022/08/02 02:58:45;;;;;;;2.20;2.00;;;;;;;19.71;100.00;96520.44;5050223;27;101817;-63
2022/08/02 03:01:29;;;;;;;2.80;2.20;;;;;;;19.88;100.00;96534.09;5050131;27;102936;-64
2022/08/02 03:04:00;;;;;;;2.20;2.10;;;;;;;19.95;100.00;96529.09;5051635;27;105780;-63
2022/08/02 03:06:28;;;;;;;3.80;1.83;;;;;;;20.06;100.00;96527.75;5048680;27;103688;-64
2022/08/02 03:08:56;;;;;;;2.20;1.70;;;;;;;20.22;100.00;96529.78;5049345;27;103044;-63
2022/08/02 03:11:28;;;;;;;2.27;2.00;;;;;;;20.10;100.00;96526.06;5048362;27;102654;-63
2022/08/02 03:13:56;;;;;;;3.70;2.07;;;;;;;19.90;100.00;96527.28;5048663;27;103921;-63
2022/08/02 03:16:23;;;;;;;2.50;2.13;;;;;;;20.10;100.00;96521.44;5048078;27;104496;-63
2022/08/02 03:18:51;;;;;;;2.60;1.80;;;;;;;20.06;100.00;96525.03;5048296;27;101967;-63
2022/08/02 03:21:18;;;;;;;1.87;1.70;;;;;;;20.01;100.00;96535.97;5048545;27;104868;-63
2022/08/02 03:23:48;;;;;;;3.80;1.97;;;;;;;20.04;100.00;96541.53;5047723;27;106076;-63
2022/08/02 03:26:15;;;;;;;2.00;1.90;;;;;;;19.92;100.00;96535.91;5051986;27;101791;-63
2022/08/02 03:28:43;;;;;;;2.20;2.00;;;;;;;19.61;100.00;96539.59;5049390;27;102594;-63
2022/08/02 03:31:11;;;;;;;2.13;2.00;;;;;;;19.42;100.00;96553.22;5048064;27;101904;-63
2022/08/02 03:33:39;;;;;;;2.33;2.10;;;;;;;19.71;100.00;96550.13;5049467;27;102308;-63
2022/08/02 03:36:11;;;;;;;1.97;1.87;;;;;;;19.81;100.00;96550.72;5050414;27;101669;-63
2022/08/02 03:38:39;;;;;;;2.83;2.13;;;;;;;19.60;100.00;96546.06;5051958;27;102529;-63
2022/08/02 03:41:09;;;;;;;2.43;2.23;;;;;;;19.32;100.00;96541.81;5052321;27;102395;-64
2022/08/02 03:43:38;;;;;;;2.37;2.17;;;;;;;19.32;100.00;96549.91;5052728;27;103153;-63
2022/08/02 03:46:08;;;;;;;3.13;1.90;;;;;;;19.59;100.00;96545.28;5056219;27;102061;-63
2022/08/02 03:48:37;;;;;;;1.83;1.73;;;;;;;19.77;100.00;96544.34;5052292;27;102601;-63
2022/08/02 03:51:05;;;;;;;2.80;1.90;;;;;;;19.82;100.00;96546.09;5052941;27;101891;-63
2022/08/02 03:53:33;;;;;;;2.60;2.40;;;;;;;19.72;100.00;96547.13;5053119;27;102358;-63
2022/08/02 03:56:00;;;;;;;2.40;2.20;;;;;;;19.65;100.00;96545.97;5050619;27;105486;-63
2022/08/02 03:58:29;;;;;;;2.10;1.90;;;;;;;19.60;100.00;96548.75;5051517;27;102078;-63
2022/08/02 04:00:57;;;;;;;2.30;1.70;;;;;;;19.71;100.00;96545.53;5052664;27;102301;-63
2022/08/02 04:03:25;;;;;;;1.60;1.50;;;;;;;19.73;100.00;96554.13;5050067;27;105864;-63
2022/08/02 04:05:53;;;;;;;2.57;1.90;;;;;;;19.82;100.00;96554.19;5049106;27;101912;-63
2022/08/02 04:08:20;;;;;;;2.17;1.63;;;;;;;19.91;100.00;96563.19;5055772;27;102847;-63
2022/08/02 04:13:39;;;;;;;2.60;1.70;;;;;;;19.89;100.00;96566.19;5053054;27;102542;-63
2022/08/02 04:16:11;;;;;;;1.77;1.67;;;;;;;19.98;100.00;96555.44;5052292;27;103197;-63
2022/08/02 04:18:50;;;;;;;1.90;1.70;;;;;;;20.13;100.00;96568.63;5053009;27;101730;-63
2022/08/02 04:21:20;;;;;;;1.83;1.70;;;;;;;19.93;100.00;96564.47;5053110;27;102497;-63
2022/08/02 04:23:50;;;;;;;2.30;2.10;;;;;;;19.65;100.00;96567.53;5050849;27;105534;-63
2022/08/02 04:26:18;;;;;;;3.33;2.27;;;;;;;19.60;100.00;96573.84;5052085;27;102073;-63
2022/08/02 04:28:48;;;;;;;2.13;1.90;;;;;;;19.86;100.00;96569.50;5032660;28;102741;-63
2022/08/02 04:31:18;;;;;;;1.70;1.60;;;;;;;19.80;100.00;96575.31;5035333;27;103113;-63
2022/08/02 04:33:46;;;;;;;2.33;2.07;;;;;;;19.75;100.00;96567.31;5030680;28;105134;-64
2022/08/02 04:36:14;;;;;;;4.00;2.37;;;;;;;19.60;100.00;96571.16;5029986;28;105575;-63
2022/08/02 04:38:41;;;;;;;4.90;2.40;;;;;;;19.56;100.00;96572.06;5030440;28;101889;-63
2022/08/02 04:41:09;;;;;;;2.30;2.10;;;;;;;19.32;100.00;96584.97;5030008;28;106045;-63
2022/08/02 04:43:36;;;;;;;4.67;1.80;;;;;;;19.43;100.00;96583.66;5029624;28;105479;-63
2022/08/02 04:46:04;;;;;;;3.07;2.37;;;;;;;19.34;100.00;96588.97;5030500;28;101892;-63
2022/08/02 04:48:32;;;;;;;2.83;2.30;;;;;;;19.32;100.00;96590.34;5031593;28;102531;-63
2022/08/02 04:50:59;;;;;;;2.17;1.80;;;;;;;19.48;100.00;96591.66;5031117;28;102732;-63
2022/08/02 04:53:26;;;;;;;2.03;1.90;;;;;;;19.68;100.00;96594.72;5035025;28;101832;-63
2022/08/02 04:55:53;;;;;;;2.43;1.93;;;;;;;19.81;100.00;96587.69;5029730;28;105877;-63
2022/08/02 04:58:21;;;;;;;3.77;2.30;;;;;;;19.75;100.00;96592.41;5030345;28;101985;-63
2022/08/02 05:00:48;;;;;;;6.37;2.20;;;;;;;19.77;100.00;96592.91;5029919;28;105811;-63
2022/08/02 05:03:17;;;;;;;4.77;2.60;;;;;;;19.83;100.00;96596.31;5029353;28;105134;-63
2022/08/02 05:05:44;;;;;;;2.20;2.00;;;;;;;19.70;100.00;96597.13;5031121;28;101778;-63
2022/08/02 05:08:11;;;;;;;2.50;1.60;;;;;;;19.89;100.00;96600.50;5030209;28;105477;-63
2022/08/02 05:10:38;;;;;;;2.73;2.00;;;;;;;20.00;100.00;96607.25;5030641;28;102617;-63
2022/08/02 05:13:06;;;;;;;2.60;2.40;;;;;;;20.10;100.00;96597.03;5029973;28;101908;-63
2022/08/02 05:15:33;;;;;;;2.03;1.80;;;;;;;20.23;100.00;96598.09;5034284;28;102839;-63
2022/08/02 05:18:00;;;;;;;2.93;1.93;;;;;;;20.54;100.00;96591.66;5031071;28;101853;-63
2022/08/02 05:20:29;;;;;;;2.47;2.23;;;;;;;20.74;100.00;96593.03;5029989;28;105166;-64
2022/08/02 05:22:56;;;;;;;2.70;2.37;;;;;;;20.87;100.00;96601.06;5030428;28;102743;-63
2022/08/02 05:25:23;;;;;;;2.43;1.97;;;;;;;21.05;100.00;96594.69;5031142;28;102763;-63
2022/08/02 05:27:50;;;;;;;2.47;1.80;;;;;;;21.21;100.00;96603.19;5029701;28;105662;-63
2022/08/02 05:30:18;;;;;;;2.90;2.00;;;;;;;20.96;100.00;96603.84;5030487;28;102564;-63
2022/08/02 05:32:46;;;;;;;3.80;2.23;;;;;;;21.05;100.00;96604.69;5029635;28;102001;-63
2022/08/02 05:35:14;;;;;;;2.37;2.10;;;;;;;20.96;100.00;96604.66;5030564;28;102560;-64
2022/08/02 05:37:43;;;;;;;3.07;1.93;;;;;;;21.11;100.00;96612.38;5033717;28;101838;-63
2022/08/02 05:40:10;;;;;;;3.00;1.90;;;;;;;20.97;100.00;96610.84;5028970;28;105558;-64
2022/08/02 05:42:38;;;;;;;2.00;1.90;;;;;;;20.80;100.00;96621.53;5029091;28;106167;-63
2022/08/02 05:45:06;;;;;;;2.20;2.00;;;;;;;20.76;100.00;96620.59;5029453;28;101896;-64
2022/08/02 05:47:34;;;;;;;2.57;1.90;;;;;;;20.65;100.00;96619.25;5030801;28;101696;-63
2022/08/02 05:50:01;;;;;;;3.33;1.90;;;;;;;20.88;100.00;96618.09;5030153;27;102597;-63
2022/08/02 05:52:42;;;;;;;2.00;1.77;;;;;;;21.00;100.00;96610.25;5030941;28;101861;-63
2022/08/02 05:55:16;;;;;;;3.77;1.97;;;;;;;21.26;100.00;96603.81;5030569;28;104001;-63
2022/08/02 05:57:52;;;;;;;5.47;2.10;;;;;;;21.06;100.00;96603.59;5031993;28;105981;-63
2022/08/02 06:00:20;;;;;;;2.30;2.10;;;;;;;20.99;100.00;96606.72;5030288;28;102916;-63
2022/08/02 06:03:07;;;;;;;2.80;2.60;;;;;;;20.79;100.00;96603.72;5028834;28;106757;-63
2022/08/02 06:05:39;;;;;;;2.77;2.40;;;;;;;20.81;100.00;96607.72;5030803;28;101925;-63
2022/08/02 06:08:09;;;;;;;2.53;2.33;;;;;;;20.45;100.00;96608.91;5029184;28;104114;-63
2022/08/02 06:10:40;;;;;;;2.87;2.00;;;;;;;20.71;100.00;96612.59;5028428;28;106136;-63
2022/08/02 06:13:11;;;;;;;2.50;2.03;;;;;;;20.80;100.00;96614.25;5030405;28;101713;-63
2022/08/02 06:15:39;;;;;;;2.10;1.90;;;;;;;20.88;100.00;96618.09;5030675;28;102333;-63
2022/08/02 06:18:07;;;;;;;2.50;2.13;;;;;;;20.75;100.00;96618.97;5028384;28;106959;-63
2022/08/02 06:20:35;;;;;;;4.97;2.43;;;;;;;20.84;100.00;96622.53;5033768;28;102025;-63
2022/08/02 06:23:04;;;;;;;3.13;1.80;;;;;;;21.09;100.00;96616.50;5029753;28;102766;-63
2022/08/02 06:25:33;;;;;;;5.90;1.93;;;;;;;20.93;100.00;96626.13;5030282;28;102007;-63
2022/08/02 06:28:03;;;;;;;4.30;1.70;;;;;;;21.03;100.00;96612.34;5030022;28;104396;-63
2022/08/02 06:30:31;;;;;;;2.23;1.20;;;;;;;20.84;100.00;96617.94;5028264;28;105812;-63
2022/08/02 06:32:58;;;;;;;2.63;1.53;;;;;;;20.85;100.00;96611.41;5028841;28;101801;-63
2022/08/02 06:35:33;;;;;;;2.00;1.23;;;;;;;21.07;100.00;96613.28;5030464;28;102851;-63
2022/08/02 06:38:01;;;;;;;1.87;1.10;;;;;;;20.97;100.00;96616.25;5029790;28;102665;-63
2022/08/02 06:40:32;;;;;;;2.40;1.30;;;;;;;21.30;100.00;96610.22;5029470;28;101855;-63
2022/08/02 06:43:23;;;;;;;1.43;1.10;;;;;;;21.88;100.00;96610.72;5033077;28;101669;-63
2022/08/02 06:45:50;;;;;;;2.40;1.20;;;;;;;22.16;100.00;96608.53;5028683;28;101842;-63
2022/08/02 06:48:17;;;;;;;1.20;1.10;;;;;;;22.17;100.00;96618.25;5029876;27;102258;-63
2022/08/02 06:50:44;;;;;;;2.10;0.97;;;;;;;22.23;100.00;96617.00;5029338;28;102590;-63
2022/08/02 06:53:12;;;;;;;1.00;1.00;;;;;;;22.37;100.00;96606.78;5029993;28;101884;-63
2022/08/02 06:55:39;;;;;;;2.63;1.30;;;;;;;22.35;100.00;96614.44;5028377;28;105105;-63
2022/08/02 06:58:06;;;;;;;0.97;0.97;;;;;;;22.25;100.00;96604.72;5029454;27;102590;-64
2022/08/02 07:00:35;;;;;;;2.73;1.30;;;;;;;22.52;100.00;96609.03;5030126;28;101820;-64
2022/08/02 07:03:03;;;;;;;2.73;1.20;;;;;;;22.66;100.00;96609.66;5029653;28;102365;-63
2022/08/02 07:05:30;;;;;;;2.23;1.20;;;;;;;22.96;100.00;96608.63;5032287;27;102752;-63
2022/08/02 07:07:57;;;;;;;1.77;1.10;;;;;;;22.99;100.00;96610.72;5029782;27;102254;-63
2022/08/02 07:10:25;;;;;;;4.23;1.37;;;;;;;22.86;100.00;96611.69;5029421;27;103156;-63
2022/08/02 07:12:52;;;;;;;2.00;1.10;;;;;;;22.97;100.00;96605.59;5033137;28;102231;-63
2022/08/02 07:15:19;;;;;;;1.00;0.87;;;;;;;23.02;100.00;96612.75;5031933;28;105265;-63
2022/08/02 07:17:48;;;;;;;1.27;1.10;;;;;;;22.83;100.00;96604.97;5031102;28;105352;-63
2022/08/02 07:20:15;;;;;;;1.60;1.10;;;;;;;23.10;100.00;96606.53;5033101;28;101849;-63
2022/08/02 07:22:43;;;;;;;0.97;0.80;;;;;;;23.13;100.00;96608.56;5033166;27;102347;-63
2022/08/02 07:25:10;;;;;;;1.20;1.00;;;;;;;22.99;100.00;96600.63;5032477;28;102632;-63
2022/08/02 07:27:37;;;;;;;0.90;0.90;;;;;;;23.21;100.00;96600.44;5035078;28;101911;-63
2022/08/02 07:30:06;;;;;;;1.03;0.97;;;;;;;23.22;100.00;96606.66;5030794;28;103870;-63
2022/08/02 07:32:34;;;;;;;1.57;0.90;;;;;;;22.96;100.00;96604.00;5031676;28;101985;-63
2022/08/02 07:35:04;;;;;;;1.17;0.90;;;;;;;23.14;100.00;96599.31;5033051;28;102366;-63
2022/08/02 07:37:33;;;;;;;1.03;0.87;;;;;;;23.42;100.00;96601.31;5032291;27;104691;-63
2022/08/02 07:40:01;;;;;;;0.80;0.80;;;;;;;23.62;100.00;96599.75;5032203;28;101826;-63
2022/08/02 07:42:28;;;;;;;2.30;0.83;;;;;;;23.80;100.00;96593.09;5031334;28;103883;-63
2022/08/02 07:44:55;;;;;;;0.60;0.60;;;;;;;23.85;100.00;96588.28;5030771;28;106069;-63
2022/08/02 07:47:22;;;;;;;0.70;0.70;;;;;;;23.87;100.00;96585.25;5036217;28;101982;-63
2022/08/02 07:49:50;;;;;;;0.90;0.90;;;;;;;23.81;100.00;96586.56;5030866;28;104111;-63
2022/08/02 07:52:19;;;;;;;0.90;0.80;;;;;;;24.07;100.00;96584.47;5032711;28;102167;-63
2022/08/02 07:54:47;;;;;;;1.83;0.87;;;;;;;24.18;100.00;96585.66;5032413;27;102368;-63
2022/08/02 07:57:15;;;;;;;0.83;0.80;;;;;;;23.95;100.00;96585.22;5030564;28;105668;-63
2022/08/02 07:59:42;;;;;;;2.97;0.80;;;;;;;24.16;100.00;96594.19;5030867;28;102042;-63
2022/08/02 08:02:09;;;;;;;1.83;0.80;;;;;;;23.89;100.00;96594.69;5032392;28;102310;-63
2022/08/02 08:04:36;;;;;;;1.00;0.80;;;;;;;24.30;100.00;96597.41;5031413;28;102818;-63
2022/08/02 08:07:05;;;;;;;1.43;0.90;;;;;;;24.64;100.00;96593.63;5031005;28;102040;-63
2022/08/02 08:09:38;;;;;;;0.90;0.90;;;;;;;24.57;100.00;96590.63;5035253;27;102826;-63
2022/08/02 08:12:06;;;;;;;0.60;0.60;;;;;;;24.69;100.00;96590.72;5032428;28;102191;-63
2022/08/02 08:14:33;;;;;;;2.10;0.80;;;;;;;24.19;100.00;96592.72;5032292;28;102570;-63
2022/08/02 08:17:01;;;;;;;1.00;0.90;;;;;;;24.26;100.00;96607.34;5030408;28;105812;-63
2022/08/02 08:19:27;;;;;;;0.90;0.67;;;;;;;24.61;100.00;96591.56;5032209;28;101914;-63
2022/08/02 08:21:54;;;;;;;0.97;0.90;;;;;;;24.27;100.00;96595.38;5031621;27;101772;-63
2022/08/02 08:24:22;;;;;;;2.40;0.90;;;;;;;24.44;100.00;96599.84;5031519;28;102549;-63
2022/08/02 08:26:56;;;;;;;0.80;0.80;;;;;;;24.60;100.00;96588.06;5030848;28;101913;-63
2022/08/02 08:29:25;;;;;;;1.00;0.90;;;;;;;24.54;100.00;96605.69;5032229;28;102550;-63
2022/08/02 08:31:52;;;;;;;1.93;1.00;;;;;;;24.07;100.00;96601.59;5034991;28;102540;-63
2022/08/02 08:34:20;;;;;;;1.37;0.90;;;;;;;24.69;100.00;96601.59;5030368;28;105320;-63
2022/08/02 08:36:47;;;;;;;0.93;0.80;;;;;;;24.94;100.00;96595.06;5031274;28;104188;-63
2022/08/02 08:39:14;;;;;;;1.20;1.03;;;;;;;25.34;100.00;96590.66;5030192;28;101923;-63
2022/08/02 08:41:43;;;;;;;4.23;1.10;;;;;;;24.25;100.00;96589.44;5030481;28;103999;-63
2022/08/02 08:44:12;;;;;;;1.17;1.07;;;;;;;25.04;100.00;96589.19;5031040;28;103115;-63
2022/08/02 08:46:43;;;;;;;2.43;1.13;;;;;;;25.48;100.00;96591.09;5032154;28;101924;-63
2022/08/02 08:49:18;;;;;;;1.70;0.90;;;;;;;24.99;100.00;96594.84;5032091;28;102331;-63
2022/08/02 08:51:45;;;;;;;2.73;0.97;;;;;;;25.99;100.00;96593.94;5029738;28;105377;-63
2022/08/02 08:54:16;;;;;;;1.37;0.90;;;;;;;26.54;100.00;96587.78;5035216;28;101929;-63
2022/08/02 08:56:43;;;;;;;0.93;0.93;;;;;;;26.38;100.00;96597.81;5031427;28;103177;-63
2022/08/02 08:59:12;;;;;;;1.67;1.10;;;;;;;26.77;100.00;96594.28;5031290;28;101772;-63
2022/08/02 09:01:39;;;;;;;1.50;1.10;;;;;;;25.83;100.00;96594.97;5031686;28;102510;-63
2022/08/02 09:04:07;;;;;;;1.27;1.17;;;;;;;25.58;100.00;96590.66;5031118;28;102639;-63
2022/08/02 09:06:34;;;;;;;1.00;1.00;;;;;;;25.83;100.00;96592.22;5031396;28;102041;-63
2022/08/02 09:09:01;;;;;;;0.97;0.97;;;;;;;25.34;100.00;96582.47;5031628;28;102433;-63
2022/08/02 09:11:28;;;;;;;0.87;0.87;;;;;;;25.94;100.00;96585.22;5030536;28;102590;-63
2022/08/02 09:13:57;;;;;;;1.50;0.93;;;;;;;26.31;99.98;96587.50;5030156;28;102324;-63
2022/08/02 09:16:31;;;;;;;1.53;0.93;;;;;;;26.93;95.80;96579.53;5032642;28;105792;-63
2022/08/02 09:18:59;;;;;;;2.70;1.00;;;;;;;27.01;82.02;96585.97;5031440;28;101849;-63
2022/08/02 09:21:35;;;;;;;0.90;0.90;;;;;;;26.61;89.53;96588.00;5031219;28;102395;-63
2022/08/02 09:24:02;;;;;;;3.43;0.90;;;;;;;27.27;85.02;96583.56;5030902;28;102158;-63
2022/08/02 09:26:29;;;;;;;1.47;0.90;;;;;;;26.99;84.77;96580.06;5031436;28;101773;-63
2022/08/02 09:29:01;;;;;;;2.40;1.10;;;;;;;27.01;88.37;96578.56;5031132;28;101680;-63
2022/08/02 09:31:34;;;;;;;0.77;0.77;;;;;;;26.73;92.87;96582.47;5030578;28;102671;-63
2022/08/02 09:34:01;;;;;;;1.67;1.00;;;;;;;26.72;91.37;96572.72;5030433;27;101693;-63
2022/08/02 09:36:39;;;;;;;1.27;0.83;;;;;;;26.76;95.31;96577.09;5029683;28;105235;-63
2022/08/02 09:39:08;;;;;;;1.33;0.90;;;;;;;27.25;91.93;96574.94;5033944;28;103170;-63
2022/08/02 09:41:39;;;;;;;0.70;0.70;;;;;;;26.60;93.48;96573.53;5030580;28;102313;-63
2022/08/02 09:44:08;;;;;;;1.17;0.80;;;;;;;26.96;89.65;96576.09;5030770;28;102824;-63
2022/08/02 09:46:39;;;;;;;0.93;0.90;;;;;;;26.80;87.92;96567.09;5029801;28;101948;-63
2022/08/02 09:49:09;;;;;;;1.33;0.80;;;;;;;27.31;79.64;96582.50;5030935;28;102357;-63
2022/08/02 09:51:39;;;;;;;0.60;0.60;;;;;;;27.53;81.25;96575.63;5030208;28;102650;-63
2022/08/02 09:54:08;;;;;;;1.70;1.00;;;;;;;27.47;79.66;96574.31;5029405;28;101925;-62
2022/08/02 09:56:44;;;;;;;1.83;0.90;;;;;;;27.26;80.04;96568.31;5030607;28;102306;-63
2022/08/02 09:59:11;;;;;;;0.77;0.77;;;;;;;27.15;78.78;96572.69;5033703;28;101686;-63
2022/08/02 10:01:41;;;;;;;0.80;0.80;;;;;;;27.09;74.88;96569.41;5029470;28;104191;-63
2022/08/02 10:04:10;;;;;;;1.57;0.90;;;;;;;27.31;76.33;96574.28;5029927;28;102824;-63
2022/08/02 10:06:39;;;;;;;0.80;0.80;;;;;;;27.36;70.79;96567.78;5030628;27;102044;-63
2022/08/02 10:09:06;;;;;;;1.70;0.80;;;;;;;27.85;67.41;96577.97;5030105;28;103892;-63
2022/08/02 10:11:34;;;;;;;0.80;0.80;;;;;;;28.07;66.90;96573.78;5030045;28;102038;-63
2022/08/02 10:14:03;;;;;;;0.60;0.60;;;;;;;27.99;69.27;96572.03;5030598;28;101800;-63
2022/08/02 10:16:31;;;;;;;0.80;0.80;;;;;;;28.68;63.39;96566.50;5030232;28;102265;-63
2022/08/02 10:19:01;;;;;;;0.77;0.60;;;;;;;27.88;63.36;96568.28;5028294;28;105337;-63
2022/08/02 10:21:32;;;;;;;1.07;1.00;;;;;;;28.40;63.98;96574.16;5033630;27;102003;-63
2022/08/02 10:24:05;;;;;;;0.70;0.70;;;;;;;28.55;64.52;96571.31;5028601;28;105006;-63
2022/08/02 10:26:33;;;;;;;1.57;0.80;;;;;;;28.27;64.96;96578.16;5029374;28;102086;-63
2022/08/02 10:29:01;;;;;;;0.70;0.70;;;;;;;27.72;70.87;96568.28;5028669;28;105230;-63
2022/08/02 10:31:33;;;;;;;1.70;0.70;;;;;;;27.14;77.48;96560.19;5029647;28;102634;-63
2022/08/02 10:34:04;;;;;;;1.40;0.90;;;;;;;27.27;70.38;96559.78;5028837;28;101808;-62
2022/08/02 10:36:34;;;;;;;0.77;0.77;;;;;;;26.89;78.96;96561.47;5029980;27;102991;-63
2022/08/02 10:39:02;;;;;;;1.37;0.60;;;;;;;27.27;76.17;96553.50;5029525;28;102565;-63
2022/08/02 10:41:51;;;;;;;1.40;1.07;;;;;;;27.81;70.27;96554.44;5029946;28;101824;-63
2022/08/02 10:44:23;;;;;;;0.87;0.87;;;;;;;27.45;67.25;96558.25;5028700;27;102687;-63
2022/08/02 10:46:50;;;;;;;1.37;0.60;;;;;;;28.46;72.36;96557.09;5033625;28;101791;-63
2022/08/02 10:49:20;;;;;;;0.60;0.60;;;;;;;29.02;62.92;96555.44;5033677;28;102843;-63
2022/08/02 10:52:04;;;;;;;2.00;0.80;;;;;;;29.32;62.00;96561.84;5031920;28;105441;-63
2022/08/02 10:54:34;;;;;;;1.00;0.90;;;;;;;29.56;57.02;96552.47;5033820;27;101875;-63
2022/08/02 10:57:02;;;;;;;0.87;0.73;;;;;;;29.71;53.13;96551.53;5033852;28;102422;-63
2022/08/02 10:59:30;;;;;;;1.17;0.70;;;;;;;29.86;53.36;96543.16;5031415;28;105821;-64
2022/08/02 11:02:02;;;;;;;0.87;0.60;;;;;;;28.84;56.55;96545.28;5033579;28;101863;-63
2022/08/02 11:04:32;;;;;;;0.77;0.77;;;;;;;28.50;62.12;96551.69;5033050;27;102238;-63
2022/08/02 11:07:12;;;;;;;1.50;0.80;;;;;;;29.23;64.05;96555.03;5035095;28;103977;-63
2022/08/02 11:09:40;;;;;;;0.70;0.70;;;;;;;29.70;53.59;96545.25;5033659;27;102579;-63
2022/08/02 11:12:09;;;;;;;0.60;0.60;;;;;;;30.10;59.25;96541.91;5032746;28;102927;-63
2022/08/02 11:14:38;;;;;;;0.73;0.70;;;;;;;29.60;50.27;96539.63;5033001;28;102039;-64
2022/08/02 11:17:09;;;;;;;1.35;0.57;;;;;;;29.81;51.29;96539.94;5033315;28;102286;-64
2022/08/02 11:20:16;;;;;;;0.50;0.50;;;;;;;29.97;54.24;96537.81;5031183;28;105535;-64
2022/08/02 11:22:44;;;;;;;0.70;0.70;;;;;;;29.67;56.48;96535.03;5033349;27;102144;-63
2022/08/02 11:25:30;;;;;;;1.13;0.60;;;;;;;30.00;55.64;96537.06;5032876;28;102326;-63
2022/08/02 11:27:58;;;;;;;2.03;0.80;;;;;;;30.43;53.79;96539.22;5031125;28;105384;-63
2022/08/02 11:30:26;;;;;;;0.60;0.50;;;;;;;29.42;53.58;96539.31;5034969;28;101829;-63
2022/08/02 11:32:56;;;;;;;0.55;0.55;;;;;;;30.07;51.57;96540.69;5030786;28;105702;-63
2022/08/02 11:35:32;;;;;;;1.13;0.63;;;;;;;29.59;53.06;96535.31;5033060;28;101787;-63